sensor_id;sensor_type;location;lat;lon;timestamp;P1;durP1;ratioP1;P2;durP2;ratioP2
13483;SDS011;6814;57.786;12.080;2023-08-20T00:01:48;7.83;;;7.13;;
13483;SDS011;6814;57.786;12.080;2023-08-20T00:04:16;9.90;;;7.23;;
13483;SDS011;6814;57.786;12.080;2023-08-20T00:06:42;7.97;;;7.10;;
13483;SDS011;6814;57.786;12.080;2023-08-20T00:09:11;7.87;;;7.27;;
13483;SDS011;6814;57.786;12.080;2023-08-20T00:11:37;8.87;;;8.03;;
13483;SDS011;6814;57.786;12.080;2023-08-20T00:14:04;8.97;;;7.43;;
13483;SDS011;6814;57.786;12.080;2023-08-20T00:16:30;8.20;;;7.40;;
13483;SDS011;6814;57.786;12.080;2023-08-20T00:18:58;9.07;;;8.17;;
13483;SDS011;6814;57.786;12.080;2023-08-20T00:21:25;9.53;;;8.10;;
13483;SDS011;6814;57.786;12.080;2023-08-20T00:23:53;9.07;;;8.17;;
13483;SDS011;6814;57.786;12.080;2023-08-20T00:26:20;9.10;;;8.10;;
13483;SDS011;6814;57.786;12.080;2023-08-20T00:28:46;9.10;;;8.30;;
13483;SDS011;6814;57.786;12.080;2023-08-20T00:31:13;9.37;;;8.67;;
13483;SDS011;6814;57.786;12.080;2023-08-20T00:33:39;9.93;;;9.03;;
13483;SDS011;6814;57.786;12.080;2023-08-20T00:36:07;9.63;;;8.73;;
13483;SDS011;6814;57.786;12.080;2023-08-20T00:38:33;9.50;;;8.70;;
13483;SDS011;6814;57.786;12.080;2023-08-20T00:41:00;9.60;;;8.70;;
13483;SDS011;6814;57.786;12.080;2023-08-20T00:43:26;11.80;;;9.47;;
13483;SDS011;6814;57.786;12.080;2023-08-20T00:45:53;10.20;;;9.37;;
13483;SDS011;6814;57.786;12.080;2023-08-20T00:48:19;10.30;;;9.40;;
13483;SDS011;6814;57.786;12.080;2023-08-20T00:50:46;10.40;;;9.40;;
13483;SDS011;6814;57.786;12.080;2023-08-20T00:53:14;10.60;;;9.70;;
13483;SDS011;6814;57.786;12.080;2023-08-20T00:55:41;10.73;;;9.80;;
13483;SDS011;6814;57.786;12.080;2023-08-20T00:58:08;11.13;;;10.00;;
13483;SDS011;6814;57.786;12.080;2023-08-20T01:00:34;11.10;;;10.10;;
13483;SDS011;6814;57.786;12.080;2023-08-20T01:03:01;11.50;;;10.40;;
13483;SDS011;6814;57.786;12.080;2023-08-20T01:05:28;12.10;;;10.80;;
13483;SDS011;6814;57.786;12.080;2023-08-20T01:08:04;11.70;;;10.60;;
13483;SDS011;6814;57.786;12.080;2023-08-20T01:10:36;11.40;;;10.33;;
13483;SDS011;6814;57.786;12.080;2023-08-20T01:13:05;11.37;;;10.37;;
13483;SDS011;6814;57.786;12.080;2023-08-20T01:15:32;12.43;;;11.23;;
13483;SDS011;6814;57.786;12.080;2023-08-20T01:17:58;12.43;;;10.87;;
13483;SDS011;6814;57.786;12.080;2023-08-20T01:20:26;12.03;;;10.90;;
13483;SDS011;6814;57.786;12.080;2023-08-20T01:23:04;12.83;;;10.73;;
13483;SDS011;6814;57.786;12.080;2023-08-20T01:25:47;12.47;;;11.23;;
13483;SDS011;6814;57.786;12.080;2023-08-20T01:28:22;12.27;;;11.17;;
13483;SDS011;6814;57.786;12.080;2023-08-20T01:30:49;12.47;;;11.23;;
13483;SDS011;6814;57.786;12.080;2023-08-20T01:33:17;12.07;;;10.93;;
13483;SDS011;6814;57.786;12.080;2023-08-20T01:35:44;12.00;;;10.97;;
13483;SDS011;6814;57.786;12.080;2023-08-20T01:38:11;12.63;;;11.53;;
13483;SDS011;6814;57.786;12.080;2023-08-20T01:40:37;12.50;;;11.20;;
13483;SDS011;6814;57.786;12.080;2023-08-20T01:43:03;12.30;;;11.10;;
13483;SDS011;6814;57.786;12.080;2023-08-20T01:45:31;12.43;;;11.23;;
13483;SDS011;6814;57.786;12.080;2023-08-20T01:47:58;12.63;;;11.47;;
13483;SDS011;6814;57.786;12.080;2023-08-20T01:50:24;12.07;;;10.97;;
13483;SDS011;6814;57.786;12.080;2023-08-20T01:52:51;11.80;;;10.70;;
13483;SDS011;6814;57.786;12.080;2023-08-20T01:55:17;11.93;;;10.73;;
13483;SDS011;6814;57.786;12.080;2023-08-20T01:57:43;12.53;;;11.33;;
13483;SDS011;6814;57.786;12.080;2023-08-20T02:00:10;11.73;;;10.73;;
13483;SDS011;6814;57.786;12.080;2023-08-20T02:02:38;12.47;;;11.17;;
13483;SDS011;6814;57.786;12.080;2023-08-20T02:05:05;11.70;;;10.60;;
13483;SDS011;6814;57.786;12.080;2023-08-20T02:07:32;12.00;;;10.70;;
13483;SDS011;6814;57.786;12.080;2023-08-20T02:09:58;11.97;;;10.77;;
13483;SDS011;6814;57.786;12.080;2023-08-20T02:12:25;11.53;;;10.43;;
13483;SDS011;6814;57.786;12.080;2023-08-20T02:14:51;9.87;;;8.97;;
13483;SDS011;6814;57.786;12.080;2023-08-20T02:17:18;10.07;;;9.17;;
13483;SDS011;6814;57.786;12.080;2023-08-20T02:19:46;10.00;;;9.07;;
13483;SDS011;6814;57.786;12.080;2023-08-20T02:22:13;9.20;;;8.40;;
13483;SDS011;6814;57.786;12.080;2023-08-20T02:24:39;10.07;;;9.17;;
13483;SDS011;6814;57.786;12.080;2023-08-20T02:27:06;9.63;;;8.57;;
13483;SDS011;6814;57.786;12.080;2023-08-20T02:29:32;8.87;;;8.07;;
13483;SDS011;6814;57.786;12.080;2023-08-20T02:31:58;9.27;;;8.57;;
13483;SDS011;6814;57.786;12.080;2023-08-20T02:34:25;9.03;;;8.23;;
13483;SDS011;6814;57.786;12.080;2023-08-20T02:36:53;9.67;;;8.77;;
13483;SDS011;6814;57.786;12.080;2023-08-20T02:39:19;8.10;;;7.40;;
13483;SDS011;6814;57.786;12.080;2023-08-20T02:41:46;8.40;;;7.70;;
13483;SDS011;6814;57.786;12.080;2023-08-20T02:44:12;8.40;;;7.60;;
13483;SDS011;6814;57.786;12.080;2023-08-20T02:46:39;7.70;;;7.10;;
13483;SDS011;6814;57.786;12.080;2023-08-20T02:49:05;7.63;;;7.00;;
13483;SDS011;6814;57.786;12.080;2023-08-20T02:51:32;7.53;;;6.90;;
13483;SDS011;6814;57.786;12.080;2023-08-20T02:54:00;7.17;;;6.57;;
13483;SDS011;6814;57.786;12.080;2023-08-20T02:56:27;7.30;;;6.70;;
13483;SDS011;6814;57.786;12.080;2023-08-20T02:58:54;6.93;;;6.33;;
13483;SDS011;6814;57.786;12.080;2023-08-20T03:01:21;6.67;;;6.17;;
13483;SDS011;6814;57.786;12.080;2023-08-20T03:03:47;7.13;;;6.43;;
13483;SDS011;6814;57.786;12.080;2023-08-20T03:06:14;6.13;;;5.63;;
13483;SDS011;6814;57.786;12.080;2023-08-20T03:08:41;6.27;;;5.77;;
13483;SDS011;6814;57.786;12.080;2023-08-20T03:11:09;5.80;;;5.30;;
13483;SDS011;6814;57.786;12.080;2023-08-20T03:13:35;6.07;;;5.50;;
13483;SDS011;6814;57.786;12.080;2023-08-20T03:16:02;7.83;;;6.37;;
13483;SDS011;6814;57.786;12.080;2023-08-20T03:18:28;6.03;;;5.63;;
13483;SDS011;6814;57.786;12.080;2023-08-20T03:20:55;6.50;;;5.90;;
13483;SDS011;6814;57.786;12.080;2023-08-20T03:23:21;6.43;;;5.83;;
13483;SDS011;6814;57.786;12.080;2023-08-20T03:25:48;5.83;;;5.40;;
13483;SDS011;6814;57.786;12.080;2023-08-20T03:28:17;6.37;;;5.87;;
13483;SDS011;6814;57.786;12.080;2023-08-20T03:30:43;6.80;;;6.13;;
13483;SDS011;6814;57.786;12.080;2023-08-20T03:33:10;6.13;;;5.63;;
13483;SDS011;6814;57.786;12.080;2023-08-20T03:35:36;5.67;;;5.13;;
13483;SDS011;6814;57.786;12.080;2023-08-20T03:38:03;5.97;;;5.40;;
13483;SDS011;6814;57.786;12.080;2023-08-20T03:40:29;6.23;;;5.63;;
13483;SDS011;6814;57.786;12.080;2023-08-20T03:42:56;6.23;;;5.70;;
13483;SDS011;6814;57.786;12.080;2023-08-20T03:45:24;5.90;;;5.50;;
13483;SDS011;6814;57.786;12.080;2023-08-20T03:47:50;5.77;;;5.30;;
13483;SDS011;6814;57.786;12.080;2023-08-20T03:50:16;6.13;;;5.63;;
13483;SDS011;6814;57.786;12.080;2023-08-20T03:52:43;6.33;;;5.73;;
13483;SDS011;6814;57.786;12.080;2023-08-20T03:55:09;6.20;;;5.70;;
13483;SDS011;6814;57.786;12.080;2023-08-20T03:57:36;6.83;;;6.00;;
13483;SDS011;6814;57.786;12.080;2023-08-20T04:00:03;7.03;;;6.43;;
13483;SDS011;6814;57.786;12.080;2023-08-20T04:02:35;6.73;;;6.13;;
13483;SDS011;6814;57.786;12.080;2023-08-20T04:05:01;6.67;;;6.17;;
13483;SDS011;6814;57.786;12.080;2023-08-20T04:07:29;6.30;;;5.70;;
13483;SDS011;6814;57.786;12.080;2023-08-20T04:09:55;6.93;;;6.33;;
13483;SDS011;6814;57.786;12.080;2023-08-20T04:12:21;6.17;;;5.67;;
13483;SDS011;6814;57.786;12.080;2023-08-20T04:14:48;6.33;;;5.83;;
13483;SDS011;6814;57.786;12.080;2023-08-20T04:17:14;6.47;;;5.90;;
13483;SDS011;6814;57.786;12.080;2023-08-20T04:19:42;7.50;;;6.40;;
13483;SDS011;6814;57.786;12.080;2023-08-20T04:22:08;7.23;;;6.57;;
13483;SDS011;6814;57.786;12.080;2023-08-20T04:24:35;6.73;;;6.23;;
13483;SDS011;6814;57.786;12.080;2023-08-20T04:27:01;7.40;;;6.70;;
13483;SDS011;6814;57.786;12.080;2023-08-20T04:29:28;7.43;;;6.90;;
13483;SDS011;6814;57.786;12.080;2023-08-20T04:34:58;7.03;;;6.43;;
13483;SDS011;6814;57.786;12.080;2023-08-20T04:37:25;7.50;;;6.80;;
13483;SDS011;6814;57.786;12.080;2023-08-20T04:39:51;7.33;;;6.67;;
13483;SDS011;6814;57.786;12.080;2023-08-20T04:42:17;6.93;;;6.43;;
13483;SDS011;6814;57.786;12.080;2023-08-20T04:44:44;7.03;;;6.53;;
13483;SDS011;6814;57.786;12.080;2023-08-20T04:47:10;6.80;;;6.33;;
13483;SDS011;6814;57.786;12.080;2023-08-20T04:49:37;6.90;;;6.30;;
13483;SDS011;6814;57.786;12.080;2023-08-20T04:52:05;7.03;;;6.53;;
13483;SDS011;6814;57.786;12.080;2023-08-20T04:54:31;7.80;;;7.00;;
13483;SDS011;6814;57.786;12.080;2023-08-20T04:56:58;7.53;;;6.83;;
13483;SDS011;6814;57.786;12.080;2023-08-20T04:59:24;7.30;;;6.80;;
13483;SDS011;6814;57.786;12.080;2023-08-20T05:01:51;7.97;;;7.30;;
13483;SDS011;6814;57.786;12.080;2023-08-20T05:04:17;8.30;;;7.60;;
13483;SDS011;6814;57.786;12.080;2023-08-20T05:06:44;7.70;;;7.10;;
13483;SDS011;6814;57.786;12.080;2023-08-20T05:09:11;8.40;;;7.70;;
13483;SDS011;6814;57.786;12.080;2023-08-20T05:11:38;8.50;;;7.70;;
13483;SDS011;6814;57.786;12.080;2023-08-20T05:14:04;8.77;;;7.97;;
13483;SDS011;6814;57.786;12.080;2023-08-20T05:16:31;9.03;;;8.13;;
13483;SDS011;6814;57.786;12.080;2023-08-20T05:18:57;8.90;;;8.20;;
13483;SDS011;6814;57.786;12.080;2023-08-20T05:21:24;8.57;;;7.77;;
13483;SDS011;6814;57.786;12.080;2023-08-20T05:23:50;8.33;;;7.63;;
13483;SDS011;6814;57.786;12.080;2023-08-20T05:26:18;8.53;;;7.83;;
13483;SDS011;6814;57.786;12.080;2023-08-20T05:28:44;8.87;;;7.97;;
13483;SDS011;6814;57.786;12.080;2023-08-20T05:31:11;9.00;;;8.20;;
13483;SDS011;6814;57.786;12.080;2023-08-20T05:33:37;8.80;;;8.00;;
13483;SDS011;6814;57.786;12.080;2023-08-20T05:36:04;9.27;;;8.40;;
13483;SDS011;6814;57.786;12.080;2023-08-20T05:38:30;8.60;;;7.57;;
13483;SDS011;6814;57.786;12.080;2023-08-20T05:40:57;9.37;;;8.57;;
13483;SDS011;6814;57.786;12.080;2023-08-20T05:43:25;8.60;;;7.90;;
13483;SDS011;6814;57.786;12.080;2023-08-20T05:45:51;8.83;;;8.03;;
13483;SDS011;6814;57.786;12.080;2023-08-20T05:48:17;9.20;;;8.40;;
13483;SDS011;6814;57.786;12.080;2023-08-20T05:50:44;8.83;;;8.03;;
13483;SDS011;6814;57.786;12.080;2023-08-20T05:53:10;9.33;;;8.53;;
13483;SDS011;6814;57.786;12.080;2023-08-20T05:55:37;9.40;;;8.60;;
13483;SDS011;6814;57.786;12.080;2023-08-20T05:58:04;9.13;;;8.33;;
13483;SDS011;6814;57.786;12.080;2023-08-20T06:00:32;9.03;;;8.13;;
13483;SDS011;6814;57.786;12.080;2023-08-20T06:02:58;8.97;;;8.07;;
13483;SDS011;6814;57.786;12.080;2023-08-20T06:05:24;8.93;;;8.23;;
13483;SDS011;6814;57.786;12.080;2023-08-20T06:07:51;8.97;;;8.07;;
13483;SDS011;6814;57.786;12.080;2023-08-20T06:10:17;9.03;;;8.33;;
13483;SDS011;6814;57.786;12.080;2023-08-20T06:12:44;8.70;;;8.00;;
13483;SDS011;6814;57.786;12.080;2023-08-20T06:15:10;8.80;;;8.10;;
13483;SDS011;6814;57.786;12.080;2023-08-20T06:17:38;8.73;;;8.03;;
13483;SDS011;6814;57.786;12.080;2023-08-20T06:20:05;8.97;;;8.10;;
13483;SDS011;6814;57.786;12.080;2023-08-20T06:22:33;8.33;;;7.60;;
13483;SDS011;6814;57.786;12.080;2023-08-20T06:24:59;8.30;;;7.70;;
13483;SDS011;6814;57.786;12.080;2023-08-20T06:27:26;8.50;;;7.70;;
13483;SDS011;6814;57.786;12.080;2023-08-20T06:29:52;8.67;;;7.87;;
13483;SDS011;6814;57.786;12.080;2023-08-20T06:32:19;11.27;;;8.10;;
13483;SDS011;6814;57.786;12.080;2023-08-20T06:34:47;8.33;;;7.63;;
13483;SDS011;6814;57.786;12.080;2023-08-20T06:37:13;8.77;;;7.77;;
13483;SDS011;6814;57.786;12.080;2023-08-20T06:39:40;8.83;;;8.03;;
13483;SDS011;6814;57.786;12.080;2023-08-20T06:42:06;10.17;;;8.13;;
13483;SDS011;6814;57.786;12.080;2023-08-20T06:44:32;11.90;;;7.87;;
13483;SDS011;6814;57.786;12.080;2023-08-20T06:47:00;9.00;;;7.90;;
13483;SDS011;6814;57.786;12.080;2023-08-20T06:49:26;8.40;;;7.70;;
13483;SDS011;6814;57.786;12.080;2023-08-20T06:51:54;8.57;;;7.77;;
13483;SDS011;6814;57.786;12.080;2023-08-20T06:54:21;9.97;;;8.27;;
13483;SDS011;6814;57.786;12.080;2023-08-20T06:56:47;8.97;;;8.13;;
13483;SDS011;6814;57.786;12.080;2023-08-20T06:59:14;9.07;;;8.17;;
13483;SDS011;6814;57.786;12.080;2023-08-20T07:01:50;11.03;;;8.83;;
13483;SDS011;6814;57.786;12.080;2023-08-20T07:04:16;11.53;;;8.77;;
13483;SDS011;6814;57.786;12.080;2023-08-20T07:06:43;10.97;;;8.90;;
13483;SDS011;6814;57.786;12.080;2023-08-20T07:09:10;9.40;;;8.60;;
13483;SDS011;6814;57.786;12.080;2023-08-20T07:11:37;10.57;;;9.43;;
13483;SDS011;6814;57.786;12.080;2023-08-20T07:14:03;9.80;;;8.70;;
13483;SDS011;6814;57.786;12.080;2023-08-20T07:16:30;10.97;;;9.67;;
13483;SDS011;6814;57.786;12.080;2023-08-20T07:18:57;11.60;;;9.70;;
13483;SDS011;6814;57.786;12.080;2023-08-20T07:21:23;12.37;;;10.20;;
13483;SDS011;6814;57.786;12.080;2023-08-20T07:23:50;13.00;;;9.77;;
13483;SDS011;6814;57.786;12.080;2023-08-20T07:26:18;13.57;;;9.67;;
13483;SDS011;6814;57.786;12.080;2023-08-20T07:28:44;12.87;;;8.93;;
13483;SDS011;6814;57.786;12.080;2023-08-20T07:31:23;9.70;;;8.10;;
13483;SDS011;6814;57.786;12.080;2023-08-20T07:33:49;10.07;;;7.90;;
13483;SDS011;6814;57.786;12.080;2023-08-20T07:36:16;9.17;;;7.53;;
13483;SDS011;6814;57.786;12.080;2023-08-20T07:38:43;9.03;;;7.13;;
13483;SDS011;6814;57.786;12.080;2023-08-20T07:41:09;7.30;;;6.57;;
13483;SDS011;6814;57.786;12.080;2023-08-20T07:43:38;9.47;;;7.27;;
13483;SDS011;6814;57.786;12.080;2023-08-20T07:46:05;6.80;;;6.10;;
13483;SDS011;6814;57.786;12.080;2023-08-20T07:48:32;8.70;;;7.30;;
13483;SDS011;6814;57.786;12.080;2023-08-20T07:50:58;9.30;;;7.00;;
13483;SDS011;6814;57.786;12.080;2023-08-20T07:53:25;7.33;;;6.53;;
13483;SDS011;6814;57.786;12.080;2023-08-20T07:55:51;7.40;;;6.70;;
13483;SDS011;6814;57.786;12.080;2023-08-20T07:58:18;7.60;;;6.90;;
13483;SDS011;6814;57.786;12.080;2023-08-20T08:00:46;8.33;;;6.60;;
13483;SDS011;6814;57.786;12.080;2023-08-20T08:03:12;7.80;;;7.00;;
13483;SDS011;6814;57.786;12.080;2023-08-20T08:05:39;7.63;;;6.53;;
13483;SDS011;6814;57.786;12.080;2023-08-20T08:08:06;6.90;;;6.23;;
13483;SDS011;6814;57.786;12.080;2023-08-20T08:10:32;6.80;;;6.03;;
13483;SDS011;6814;57.786;12.080;2023-08-20T08:12:59;7.00;;;6.40;;
13483;SDS011;6814;57.786;12.080;2023-08-20T08:15:25;9.43;;;6.30;;
13483;SDS011;6814;57.786;12.080;2023-08-20T08:17:53;7.87;;;7.07;;
13483;SDS011;6814;57.786;12.080;2023-08-20T08:20:19;8.00;;;7.20;;
13483;SDS011;6814;57.786;12.080;2023-08-20T08:22:46;11.57;;;8.53;;
13483;SDS011;6814;57.786;12.080;2023-08-20T08:25:12;12.90;;;7.93;;
13483;SDS011;6814;57.786;12.080;2023-08-20T08:27:39;10.17;;;8.37;;
13483;SDS011;6814;57.786;12.080;2023-08-20T08:30:06;9.53;;;8.13;;
13483;SDS011;6814;57.786;12.080;2023-08-20T08:32:32;8.10;;;7.30;;
13483;SDS011;6814;57.786;12.080;2023-08-20T08:35:01;8.07;;;7.37;;
13483;SDS011;6814;57.786;12.080;2023-08-20T08:37:27;8.00;;;7.30;;
13483;SDS011;6814;57.786;12.080;2023-08-20T08:39:53;8.50;;;7.70;;
13483;SDS011;6814;57.786;12.080;2023-08-20T08:42:20;8.67;;;6.50;;
13483;SDS011;6814;57.786;12.080;2023-08-20T08:44:48;7.83;;;7.13;;
13483;SDS011;6814;57.786;12.080;2023-08-20T08:47:15;9.57;;;8.30;;
13483;SDS011;6814;57.786;12.080;2023-08-20T08:49:42;8.30;;;7.50;;
13483;SDS011;6814;57.786;12.080;2023-08-20T08:52:10;10.67;;;7.67;;
13483;SDS011;6814;57.786;12.080;2023-08-20T08:54:37;10.07;;;8.60;;
13483;SDS011;6814;57.786;12.080;2023-08-20T08:57:04;19.67;;;9.17;;
13483;SDS011;6814;57.786;12.080;2023-08-20T08:59:30;20.83;;;9.93;;
13483;SDS011;6814;57.786;12.080;2023-08-20T09:01:57;28.67;;;12.13;;
13483;SDS011;6814;57.786;12.080;2023-08-20T09:04:23;165.20;;;17.13;;
13483;SDS011;6814;57.786;12.080;2023-08-20T09:06:51;112.77;;;16.80;;
13483;SDS011;6814;57.786;12.080;2023-08-20T09:09:19;53.70;;;14.90;;
13483;SDS011;6814;57.786;12.080;2023-08-20T09:11:46;37.03;;;14.50;;
13483;SDS011;6814;57.786;12.080;2023-08-20T09:14:20;85.53;;;16.83;;
13483;SDS011;6814;57.786;12.080;2023-08-20T09:16:47;105.57;;;17.57;;
13483;SDS011;6814;57.786;12.080;2023-08-20T09:19:13;313.33;;;24.70;;
13483;SDS011;6814;57.786;12.080;2023-08-20T09:21:39;366.37;;;26.17;;
13483;SDS011;6814;57.786;12.080;2023-08-20T09:24:12;566.03;;;33.13;;
13483;SDS011;6814;57.786;12.080;2023-08-20T09:26:39;419.53;;;30.13;;
13483;SDS011;6814;57.786;12.080;2023-08-20T09:29:11;752.93;;;42.20;;
13483;SDS011;6814;57.786;12.080;2023-08-20T09:31:37;764.93;;;45.50;;
13483;SDS011;6814;57.786;12.080;2023-08-20T09:34:04;494.23;;;33.60;;
13483;SDS011;6814;57.786;12.080;2023-08-20T09:36:31;375.60;;;29.03;;
13483;SDS011;6814;57.786;12.080;2023-08-20T09:38:57;689.50;;;42.47;;
13483;SDS011;6814;57.786;12.080;2023-08-20T09:41:24;360.03;;;30.70;;
13483;SDS011;6814;57.786;12.080;2023-08-20T09:43:53;493.93;;;35.17;;
13483;SDS011;6814;57.786;12.080;2023-08-20T09:46:21;533.53;;;39.37;;
13483;SDS011;6814;57.786;12.080;2023-08-20T09:48:49;261.17;;;28.83;;
13483;SDS011;6814;57.786;12.080;2023-08-20T09:51:18;318.17;;;30.10;;
13483;SDS011;6814;57.786;12.080;2023-08-20T09:53:48;477.80;;;36.47;;
13483;SDS011;6814;57.786;12.080;2023-08-20T09:56:19;385.80;;;32.70;;
13483;SDS011;6814;57.786;12.080;2023-08-20T09:58:48;285.70;;;27.83;;
13483;SDS011;6814;57.786;12.080;2023-08-20T10:01:16;165.23;;;26.63;;
13483;SDS011;6814;57.786;12.080;2023-08-20T10:03:42;45.50;;;19.97;;
13483;SDS011;6814;57.786;12.080;2023-08-20T10:06:09;48.67;;;19.67;;
13483;SDS011;6814;57.786;12.080;2023-08-20T10:08:36;41.83;;;17.93;;
13483;SDS011;6814;57.786;12.080;2023-08-20T10:11:02;41.93;;;17.97;;
13483;SDS011;6814;57.786;12.080;2023-08-20T10:13:29;33.77;;;15.93;;
13483;SDS011;6814;57.786;12.080;2023-08-20T10:15:55;30.93;;;15.03;;
13483;SDS011;6814;57.786;12.080;2023-08-20T10:18:23;25.70;;;14.63;;
13483;SDS011;6814;57.786;12.080;2023-08-20T10:20:50;27.33;;;13.67;;
13483;SDS011;6814;57.786;12.080;2023-08-20T10:23:19;31.83;;;14.40;;
13483;SDS011;6814;57.786;12.080;2023-08-20T10:25:46;30.43;;;13.83;;
13483;SDS011;6814;57.786;12.080;2023-08-20T10:28:13;25.37;;;13.90;;
13483;SDS011;6814;57.786;12.080;2023-08-20T10:33:21;26.77;;;13.40;;
13483;SDS011;6814;57.786;12.080;2023-08-20T10:35:49;25.77;;;13.57;;
13483;SDS011;6814;57.786;12.080;2023-08-20T10:38:17;28.03;;;12.97;;
13483;SDS011;6814;57.786;12.080;2023-08-20T10:40:53;25.10;;;13.80;;
13483;SDS011;6814;57.786;12.080;2023-08-20T10:43:26;28.00;;;14.20;;
13483;SDS011;6814;57.786;12.080;2023-08-20T10:46:01;29.03;;;13.17;;
13483;SDS011;6814;57.786;12.080;2023-08-20T10:48:28;28.93;;;13.47;;
13483;SDS011;6814;57.786;12.080;2023-08-20T10:51:07;22.70;;;13.30;;
13483;SDS011;6814;57.786;12.080;2023-08-20T10:53:33;22.97;;;12.13;;
13483;SDS011;6814;57.786;12.080;2023-08-20T10:56:07;27.97;;;13.53;;
13483;SDS011;6814;57.786;12.080;2023-08-20T10:58:33;31.23;;;12.93;;
13483;SDS011;6814;57.786;12.080;2023-08-20T11:01:12;22.43;;;13.63;;
13483;SDS011;6814;57.786;12.080;2023-08-20T11:03:40;19.83;;;12.33;;
13483;SDS011;6814;57.786;12.080;2023-08-20T11:06:08;19.17;;;12.63;;
13483;SDS011;6814;57.786;12.080;2023-08-20T11:08:34;19.67;;;12.13;;
13483;SDS011;6814;57.786;12.080;2023-08-20T11:11:01;18.87;;;11.37;;
13483;SDS011;6814;57.786;12.080;2023-08-20T11:13:28;20.70;;;12.20;;
13483;SDS011;6814;57.786;12.080;2023-08-20T11:15:54;17.60;;;11.70;;
13483;SDS011;6814;57.786;12.080;2023-08-20T11:18:21;19.30;;;10.87;;
13483;SDS011;6814;57.786;12.080;2023-08-20T11:20:50;16.63;;;9.90;;
13483;SDS011;6814;57.786;12.080;2023-08-20T11:23:17;16.47;;;10.70;;
13483;SDS011;6814;57.786;12.080;2023-08-20T11:25:44;17.00;;;9.83;;
13483;SDS011;6814;57.786;12.080;2023-08-20T11:28:10;15.13;;;9.07;;
13483;SDS011;6814;57.786;12.080;2023-08-20T11:30:37;14.20;;;9.20;;
13483;SDS011;6814;57.786;12.080;2023-08-20T11:33:04;18.00;;;9.63;;
13483;SDS011;6814;57.786;12.080;2023-08-20T11:35:31;14.87;;;8.67;;
13483;SDS011;6814;57.786;12.080;2023-08-20T11:37:58;13.77;;;8.47;;
13483;SDS011;6814;57.786;12.080;2023-08-20T11:40:26;14.93;;;8.33;;
13483;SDS011;6814;57.786;12.080;2023-08-20T11:42:52;16.10;;;8.60;;
13483;SDS011;6814;57.786;12.080;2023-08-20T11:45:19;15.27;;;8.20;;
13483;SDS011;6814;57.786;12.080;2023-08-20T11:47:45;16.63;;;9.00;;
13483;SDS011;6814;57.786;12.080;2023-08-20T11:50:12;15.47;;;7.53;;
13483;SDS011;6814;57.786;12.080;2023-08-20T11:52:38;9.93;;;6.63;;
13483;SDS011;6814;57.786;12.080;2023-08-20T11:55:05;7.23;;;5.33;;
13483;SDS011;6814;57.786;12.080;2023-08-20T11:57:33;9.87;;;5.13;;
13483;SDS011;6814;57.786;12.080;2023-08-20T12:00:01;14.80;;;5.87;;
13483;SDS011;6814;57.786;12.080;2023-08-20T12:02:30;10.40;;;5.13;;
13483;SDS011;6814;57.786;12.080;2023-08-20T12:04:56;8.93;;;4.90;;
13483;SDS011;6814;57.786;12.080;2023-08-20T12:07:24;10.03;;;5.13;;
13483;SDS011;6814;57.786;12.080;2023-08-20T12:09:51;9.40;;;4.80;;
13483;SDS011;6814;57.786;12.080;2023-08-20T12:12:17;10.43;;;5.27;;
13483;SDS011;6814;57.786;12.080;2023-08-20T12:14:47;10.20;;;4.70;;
13483;SDS011;6814;57.786;12.080;2023-08-20T12:17:16;8.70;;;4.50;;
13483;SDS011;6814;57.786;12.080;2023-08-20T12:19:42;9.93;;;4.20;;
13483;SDS011;6814;57.786;12.080;2023-08-20T12:22:09;9.47;;;3.97;;
13483;SDS011;6814;57.786;12.080;2023-08-20T12:24:37;9.23;;;3.43;;
13483;SDS011;6814;57.786;12.080;2023-08-20T12:27:03;6.67;;;3.40;;
13483;SDS011;6814;57.786;12.080;2023-08-20T12:29:29;5.33;;;3.20;;
13483;SDS011;6814;57.786;12.080;2023-08-20T12:31:58;10.43;;;3.80;;
13483;SDS011;6814;57.786;12.080;2023-08-20T12:34:25;7.10;;;3.33;;
13483;SDS011;6814;57.786;12.080;2023-08-20T12:36:51;6.47;;;3.13;;
13483;SDS011;6814;57.786;12.080;2023-08-20T12:39:17;6.93;;;2.50;;
13483;SDS011;6814;57.786;12.080;2023-08-20T12:41:44;6.73;;;2.60;;
13483;SDS011;6814;57.786;12.080;2023-08-20T12:44:11;7.17;;;2.50;;
13483;SDS011;6814;57.786;12.080;2023-08-20T12:46:37;4.53;;;2.30;;
13483;SDS011;6814;57.786;12.080;2023-08-20T12:49:05;6.30;;;2.00;;
13483;SDS011;6814;57.786;12.080;2023-08-20T12:51:32;7.63;;;2.33;;
13483;SDS011;6814;57.786;12.080;2023-08-20T12:53:58;5.53;;;2.30;;
13483;SDS011;6814;57.786;12.080;2023-08-20T12:56:25;5.03;;;2.43;;
13483;SDS011;6814;57.786;12.080;2023-08-20T12:58:52;4.67;;;2.43;;
13483;SDS011;6814;57.786;12.080;2023-08-20T13:01:18;5.93;;;1.70;;
13483;SDS011;6814;57.786;12.080;2023-08-20T13:03:45;6.10;;;1.90;;
13483;SDS011;6814;57.786;12.080;2023-08-20T13:06:14;4.63;;;1.80;;
13483;SDS011;6814;57.786;12.080;2023-08-20T13:08:40;4.57;;;1.80;;
13483;SDS011;6814;57.786;12.080;2023-08-20T13:11:07;3.77;;;1.60;;
13483;SDS011;6814;57.786;12.080;2023-08-20T13:13:35;4.70;;;1.57;;
13483;SDS011;6814;57.786;12.080;2023-08-20T13:16:02;4.17;;;2.03;;
13483;SDS011;6814;57.786;12.080;2023-08-20T13:18:29;5.13;;;1.73;;
13483;SDS011;6814;57.786;12.080;2023-08-20T13:20:56;4.40;;;1.73;;
13483;SDS011;6814;57.786;12.080;2023-08-20T13:23:24;4.77;;;1.70;;
13483;SDS011;6814;57.786;12.080;2023-08-20T13:25:50;4.30;;;1.70;;
13483;SDS011;6814;57.786;12.080;2023-08-20T13:28:17;3.83;;;1.77;;
13483;SDS011;6814;57.786;12.080;2023-08-20T13:30:44;5.07;;;2.10;;
13483;SDS011;6814;57.786;12.080;2023-08-20T13:33:10;4.57;;;1.50;;
13483;SDS011;6814;57.786;12.080;2023-08-20T13:35:37;3.83;;;1.73;;
13483;SDS011;6814;57.786;12.080;2023-08-20T13:38:03;4.87;;;1.77;;
13483;SDS011;6814;57.786;12.080;2023-08-20T13:40:32;3.97;;;1.97;;
13483;SDS011;6814;57.786;12.080;2023-08-20T13:42:58;3.17;;;1.40;;
13483;SDS011;6814;57.786;12.080;2023-08-20T13:45:25;3.53;;;1.90;;
13483;SDS011;6814;57.786;12.080;2023-08-20T13:47:51;4.27;;;1.90;;
13483;SDS011;6814;57.786;12.080;2023-08-20T13:50:18;2.93;;;1.23;;
13483;SDS011;6814;57.786;12.080;2023-08-20T13:52:44;4.00;;;1.73;;
13483;SDS011;6814;57.786;12.080;2023-08-20T13:55:11;4.37;;;1.80;;
13483;SDS011;6814;57.786;12.080;2023-08-20T13:57:39;2.57;;;1.57;;
13483;SDS011;6814;57.786;12.080;2023-08-20T14:00:06;4.53;;;1.60;;
13483;SDS011;6814;57.786;12.080;2023-08-20T14:02:37;3.80;;;1.80;;
13483;SDS011;6814;57.786;12.080;2023-08-20T14:05:04;5.20;;;1.42;;
13483;SDS011;6814;57.786;12.080;2023-08-20T14:07:30;4.68;;;1.67;;
13483;SDS011;6814;57.786;12.080;2023-08-20T14:09:57;4.72;;;1.90;;
13483;SDS011;6814;57.786;12.080;2023-08-20T14:12:24;3.10;;;1.60;;
13483;SDS011;6814;57.786;12.080;2023-08-20T14:14:52;4.68;;;1.70;;
13483;SDS011;6814;57.786;12.080;2023-08-20T14:17:19;5.68;;;1.73;;
13483;SDS011;6814;57.786;12.080;2023-08-20T14:19:45;5.20;;;1.98;;
13483;SDS011;6814;57.786;12.080;2023-08-20T14:22:11;3.92;;;1.55;;
13483;SDS011;6814;57.786;12.080;2023-08-20T14:24:38;2.70;;;1.60;;
13483;SDS011;6814;57.786;12.080;2023-08-20T14:27:04;2.47;;;1.75;;
13483;SDS011;6814;57.786;12.080;2023-08-20T14:29:32;4.25;;;1.70;;
13483;SDS011;6814;57.786;12.080;2023-08-20T14:32:00;4.65;;;1.65;;
13483;SDS011;6814;57.786;12.080;2023-08-20T14:34:26;2.85;;;1.60;;
13483;SDS011;6814;57.786;12.080;2023-08-20T14:36:53;4.30;;;1.70;;
13483;SDS011;6814;57.786;12.080;2023-08-20T14:39:19;1.88;;;1.30;;
13483;SDS011;6814;57.786;12.080;2023-08-20T14:41:45;2.75;;;1.30;;
13483;SDS011;6814;57.786;12.080;2023-08-20T14:44:12;3.45;;;1.70;;